Hovedside
METAR-TAF:

METAR-TAF

Lufthavner :

RAF

Spadeadam, England

breddegrad: 55-03N, lengdegrad: 002-33W, høyde over havet: 325 m

Gjeldene værobservasjon

Denne rapporten ble laget for 33 minutter siden, klokken 13:50 UTC
Vind 17 kt fra Vest-sørvest
Temperatur 6°C
Luftfuktighet 100%
Trykk 1026 hPa
Sikt: 0100 m
tåke

METAR: EGOM 231350Z 25017KT 0100 FG VV/// 06/06 Q1026 RED

Tid: 14:23 (14:23 UTC)


TAF: fraværende

Værobservasjoner og værvarsel for over 4000 flyplasser (METAR- og TAF-rapporter).

Tilgjengelige stasjoner er representert av de røde og gule prikkene på kartet.

Hold musepekeren over prikken for å se navnet på stasjonen.

Klikk så for å se værobservasjoner og -varsler.

For å forandre kartet kan du klikke på den grønne knappen med svart kryss for å zoome inn, på den grønne knappen med strek for å zoome ut, eller på de grønne pilene for å se tilstøtende kart.


METAR-TAF: